• Join FlightAware (Why Join?)
  • Login
  • US Flag 
06:12PM EST


 

Airport Tracker/Info


-or-


 

Live Flight TrackerFlight Track Log ✈ EJA982 ✈ 23-Apr-2013 ✈ KBKL - KBED

Flight Track Log - Related Links

Times and Time Zones

All times are in EDT time to prevent confusion due to time zone crossing. See the EJA982 flight status page for this flight to view local times or setup timezone preferences in your user account.

Time Position Orientation Groundspeed Altitude Reporting Facility
EDT Latitude Longitude Course Direction KTS MPH feet Rate Location/Type
03:02PM 41.5083 -81.7033 277° West 173 199 1,200  Level Cleveland Center
03:02PM 41.5103 -81.7256 277° West 206 237 1,900 2,220 Climbing Cleveland Center
03:03PM 41.5619 -81.7597 334° Northwest 249 287 4,200 2,700 Climbing Cleveland Center
03:04PM 41.6231 -81.6969 38° Northeast 294 338 7,500 3,120 Climbing Cleveland Center
03:05PM 41.6842 -81.6175 44° Northeast 310 357 10,700 2,580 Climbing Cleveland Center
03:06PM 41.7167 -81.4900 71° East 333 383 12,800 2,460 Climbing Cleveland Center
03:07PM 41.7450 -81.3344 76° East 374 430 15,700 2,820 Climbing Cleveland Center
03:08PM 41.7728 -81.1844 76° East 402 463 18,500 2,880 Climbing Cleveland Center
03:09PM 41.7986 -81.0317 77° East 416 479 21,500 2,700 Climbing Cleveland Center
03:10PM 41.8261 -80.8814 76° East 416 479 23,900 2,400 Climbing Cleveland Center
03:11PM 41.8536 -80.7225 77° East 416 479 26,400 1,500 Climbing Cleveland Center
03:12PM 41.8850 -80.5525 76° East 446 513 27,000 1,200 Climbing Cleveland Center
03:13PM 41.9161 -80.3683 77° East 487 560 28,900 2,160 Climbing Cleveland Center
03:14PM 41.9428 -80.2036 78° East 501 577 31,400 2,340 Climbing Cleveland Center
03:15PM 41.9419 -80.0108 90° East 508 585 33,600 1,980 Climbing Cleveland Center
03:16PM 41.9408 -79.8211 90° East 508 585 35,400 1,380 Climbing Cleveland Center
03:17PM 41.9372 -79.6089 91° East 533 613 36,400 1,200 Climbing Cleveland Center
03:18PM 41.9622 -79.4075 80° East 540 621 37,800 1,740 Climbing Cleveland Center
03:19PM 42.0019 -79.2197 74° East 534 615 39,900 1,560 Climbing Cleveland Center
03:20PM 42.0414 -79.0342 74° East 517 595 41,000 540 Climbing Cleveland Center
03:21PM 42.0822 -78.8431 74° East 517 595 41,000  Level Cleveland Center
03:22PM 42.1208 -78.6431 75° East 523 602 41,000  Level Cleveland Center
03:23PM 42.1611 -78.4514 74° East 533 613 41,000  Level Cleveland Center
03:24PM 42.2050 -78.2425 74° East 533 613 41,000  Level Cleveland Center
03:25PM 42.2425 -78.0447 76° East 533 613 41,000  Level Cleveland Center
03:26PM 42.2800 -77.8525 75° East 539 620 41,000  Level Cleveland Center
03:27PM 42.3208 -77.6542 74° East 539 620 41,000  Level Cleveland Center
03:29PM 42.3853 -77.3181 75° East 522 601 41,000  Level Boston Center
03:30PM 42.4225 -77.1239 75° East 527 606 41,000  Level Boston Center
03:31PM 42.4433 -76.9200 82° East 527 606 41,000  Level Boston Center
03:32PM 42.4531 -76.7181 86° East 532 612 41,000  Level Boston Center
03:33PM 42.4608 -76.5131 87° East 538 619 41,000  Level Boston Center
03:34PM 42.4658 -76.3106 88° East 538 619 41,000  Level Boston Center
03:35PM 42.4750 -76.0969 87° East 519 597 41,000 -60 Level Boston Center
03:36PM 42.4811 -75.8975 88° East 519 597 40,900 -1,080 Descending Boston Center
03:38PM 42.4853 -75.6771 88° East  Level FlightAware Approximate
03:38PM 42.4947 -75.4956 88° East 524 603 37,900  Level Boston Center
03:39PM 42.4972 -75.3181 89° East 524 603 36,400 -960 Descending Boston Center
03:40PM 42.5042 -75.1214 87° East 524 603 36,000 -1,080 Descending Boston Center
03:41PM 42.5086 -74.9269 88° East 524 603 34,300 -2,280 Descending Boston Center
03:42PM 42.5150 -74.7303 87° East 519 597 31,500 -2,700 Descending Boston Center
03:43PM 42.5189 -74.5247 88° East 531 611 29,000 -1,500 Descending Boston Center
03:44PM 42.5247 -74.3078 88° East 531 611 28,600 -540 Descending Boston Center
03:45PM 42.5278 -74.1108 89° East 531 611 28,000 -360 Descending Boston Center
03:46PM 42.5306 -73.9136 89° East 531 611 27,900 -720 Descending Boston Center
03:47PM 42.5350 -73.7192 88° East 526 605 26,600 -1,320 Descending Boston Center
03:48PM 42.5369 -73.5250 89° East 516 594 25,300 -840 Descending Boston Center
03:49PM 42.5383 -73.3756 89° East 505 581 25,000 -1,020 Descending Boston Center
03:50PM 42.5419 -73.1672 89° East 505 581 23,300 -1,740 Descending Boston Center
03:51PM 42.5428 -72.9839 90° East 491 565 21,600 -1,200 Descending Boston Center
03:52PM 42.5436 -72.8064 90° East 483 556 21,000 -840 Descending Boston Center
03:53PM 42.5461 -72.6261 89° East 478 550 20,000 -540 Descending Boston Center
03:54PM 42.5464 -72.4514 90° East 467 537 20,000 -1,620 Level Boston Center
03:56PM 42.5439 -72.1300 90° East 407 468 15,300 -2,820 Descending Boston Center
03:57PM 42.5369 -71.9892 94° East 383 441 11,700 -2,400 Descending Boston Center
03:58PM 42.5261 -71.8653 97° East 353 406 10,600 -1,560 Descending Boston Center
03:59PM 42.5214 -71.7642 94° East 280 322 8,600 -2,160 Descending Boston Center
04:00PM 42.5436 -71.6650 73° East 260 299 6,300 -1,800 Descending Boston Center
04:01PM 42.5597 -71.5889 74° East 224 258 5,100 -1,380 Descending Boston Center
04:02PM 42.5178 -71.5642 157° South 137 158 3,600 -1,500 Descending Boston Center
04:03PM 42.4925 -71.5081 121° Southeast 162 186 2,100 -780 Descending Boston Center
04:04PM 42.4856 -71.4492 99° East 157 181 2,100 -300 Level Boston Center
04:05PM 42.4831 -71.3928 93° East 157 181 1,600 -600 Descending Boston Center
04:06PM 42.4764 -71.3508 102° East 135 155 1,000 -600 Descending Boston Center
04:07PM 42.4717 -71.3000 97° East 128 147 400 13,980 Descending Boston Center
04:08PM 42.4672 -71.2494 97° East 128 147 29,000 14,280 Climbing Boston Center
04:09PM 42.4603 -71.2019 101° East 128 147 29,000  Level Boston Center
04:10PM 42.4556 -71.1514 97° East 128 147 29,000  Level Boston Center
04:11PM 42.4511 -71.1119 99° East 128 147 29,000  Level Boston Center
04:13PM 42.4667 -71.2833 280° West  Level FlightAware Approximate
04:20PM 42.4699 -71.2890 280° West  Level Estimated
04:21PM 42.4667 -71.2833 280° West  Level FlightAware Approximate
04:22PM 42.4699 -71.2890 280° West  Level Estimated
04:23PM 42.4667 -71.2833 280° West  Level FlightAware Approximate